PWSweather.com
Personal Weather Stations
Station Observations
TARRYHILL
Tarrytown, NY 10591

Tarrytown, NY 10591

Lat: 41.05185, Lon: -73.85296

Elevation: 341

Station Type: Davis Vantage Vue

Latest ConditionsUpdated 6:20:22 PM EDT Tuesday, Sep 23, 2014
Currently Today's Max Today's Min Today's Average
Temperature 73.6°F23.1°C 73.6°F23.1°C 45.8°F7.7°C 57.4°F14.1°C
Dew Point 49.7°F9.8°C 49.7°F9.8°C 41.0°F5.0°C 44.5°F6.9°C
Winds Calm Calm 4.7 mph SE7.6 kmh SE - 0.7 mph 1.1 kmh
Wind Gusts -- 7.0 mph11.3 kmh - -
Humidity 43% 89% 40% 64%
Pressure 30.31 in1026.4 mb 30.34 in1027.4 mb 30.16 in1021.3 mb -
Hour Temp Dew Point Humidity Winds Wind Gusts Pressure Precip Precip Rate Daily Precip Total
06:20 PM 73.6°F23.1°C 49.7°F9.8°C 43% Calm Calm -- 30.31 in1026.4 mb 0.00 in0.0 mm 0.00 in/hr0.0 mm/hr 0.00 in0.0 mm
06:10 PM 72.6°F22.6°C 47.5°F8.6°C 41% Calm Calm -- 30.31 in1026.4 mb 0.00 in0.0 mm 0.00 in/hr0.0 mm/hr 0.00 in0.0 mm
06:00 PM 73.2°F22.9°C 47.4°F8.6°C 40% 0.6 mph WNW1.0 kmh WNW 1.0 mph1.6 kmh 30.30 in1026.1 mb 0.00 in0.0 mm 0.00 in/hr0.0 mm/hr 0.00 in0.0 mm
05:50 PM 73.6°F23.1°C 48.4°F9.1°C 41% Calm Calm 1.0 mph1.6 kmh 30.30 in1026.1 mb 0.00 in0.0 mm 0.00 in/hr0.0 mm/hr 0.00 in0.0 mm
05:40 PM 72.6°F22.6°C 46.9°F8.3°C 40% 0.1 mph WSW0.2 kmh WSW -- 30.30 in1026.1 mb 0.00 in0.0 mm 0.00 in/hr0.0 mm/hr 0.00 in0.0 mm
05:30 PM 73.4°F23.0°C 48.3°F9.1°C 41% 1.2 mph SW1.9 kmh SW 3.0 mph4.8 kmh 30.30 in1026.1 mb 0.00 in0.0 mm 0.00 in/hr0.0 mm/hr 0.00 in0.0 mm
05:20 PM 71.6°F22.0°C 47.9°F8.8°C 43% 0.3 mph NW0.5 kmh NW 1.0 mph1.6 kmh 30.30 in1026.1 mb 0.00 in0.0 mm 0.00 in/hr0.0 mm/hr 0.00 in0.0 mm
05:10 PM 72.1°F22.3°C 47.1°F8.4°C 41% 0.1 mph NNE0.2 kmh NNE 1.0 mph1.6 kmh 30.30 in1026.1 mb 0.00 in0.0 mm 0.00 in/hr0.0 mm/hr 0.00 in0.0 mm
05:00 PM 73.1°F22.8°C 47.3°F8.5°C 40% 0.1 mph NW0.2 kmh NW -- 30.30 in1026.1 mb 0.00 in0.0 mm 0.00 in/hr0.0 mm/hr 0.00 in0.0 mm
04:50 PM 72.1°F22.3°C 46.5°F8.1°C 40% 0.7 mph WNW1.1 kmh WNW 1.0 mph1.6 kmh 30.30 in1026.1 mb 0.00 in0.0 mm 0.00 in/hr0.0 mm/hr 0.00 in0.0 mm
04:40 PM 72.3°F22.4°C 47.3°F8.5°C 41% 0.8 mph WNW1.3 kmh WNW 1.0 mph1.6 kmh 30.30 in1026.1 mb 0.00 in0.0 mm 0.00 in/hr0.0 mm/hr 0.00 in0.0 mm
04:30 PM 71.9°F22.2°C 46.9°F8.3°C 41% 0.8 mph WNW1.3 kmh WNW 2.0 mph3.2 kmh 30.30 in1026.1 mb 0.00 in0.0 mm 0.00 in/hr0.0 mm/hr 0.00 in0.0 mm
04:20 PM 71.5°F21.9°C 46.6°F8.1°C 41% 0.2 mph WSW0.3 kmh WSW 1.0 mph1.6 kmh 30.30 in1026.1 mb 0.00 in0.0 mm 0.00 in/hr0.0 mm/hr 0.00 in0.0 mm
04:10 PM 71.1°F21.7°C 46.2°F7.9°C 41% 0.5 mph SE0.8 kmh SE 1.0 mph1.6 kmh 30.30 in1026.1 mb 0.00 in0.0 mm 0.00 in/hr0.0 mm/hr 0.00 in0.0 mm
04:00 PM 71.1°F21.7°C 46.8°F8.2°C 42% 2.2 mph WNW3.5 kmh WNW 4.0 mph6.4 kmh 30.30 in1026.1 mb 0.00 in0.0 mm 0.00 in/hr0.0 mm/hr 0.00 in0.0 mm
03:50 PM 71.2°F21.8°C 46.3°F7.9°C 41% 2.8 mph SW4.5 kmh SW 6.0 mph9.7 kmh 30.30 in1026.1 mb 0.00 in0.0 mm 0.00 in/hr0.0 mm/hr 0.00 in0.0 mm
03:40 PM 70.0°F21.1°C 46.5°F8.1°C 43% 1.9 mph S3.1 kmh S 2.0 mph3.2 kmh 30.31 in1026.4 mb 0.00 in0.0 mm 0.00 in/hr0.0 mm/hr 0.00 in0.0 mm
03:30 PM 69.4°F20.8°C 46.5°F8.1°C 44% 0.8 mph WSW1.3 kmh WSW 4.0 mph6.4 kmh 30.31 in1026.4 mb 0.00 in0.0 mm 0.00 in/hr0.0 mm/hr 0.00 in0.0 mm
03:20 PM 68.9°F20.5°C 46.7°F8.2°C 45% 0.7 mph SSW1.1 kmh SSW 2.0 mph3.2 kmh 30.31 in1026.4 mb 0.00 in0.0 mm 0.00 in/hr0.0 mm/hr 0.00 in0.0 mm
03:10 PM 69.5°F20.8°C 47.2°F8.4°C 45% 0.8 mph E1.3 kmh E 6.0 mph9.7 kmh 30.31 in1026.4 mb 0.00 in0.0 mm 0.00 in/hr0.0 mm/hr 0.00 in0.0 mm
03:00 PM 68.8°F20.4°C 46.6°F8.1°C 45% 2.4 mph S3.9 kmh S 4.0 mph6.4 kmh 30.31 in1026.4 mb 0.00 in0.0 mm 0.00 in/hr0.0 mm/hr 0.00 in0.0 mm
02:50 PM 68.3°F20.2°C 46.1°F7.8°C 45% 0.9 mph SSW1.4 kmh SSW 5.0 mph8.0 kmh 30.31 in1026.4 mb 0.00 in0.0 mm 0.00 in/hr0.0 mm/hr 0.00 in0.0 mm
02:40 PM 68.2°F20.1°C 45.4°F7.4°C 44% 1.5 mph SW2.4 kmh SW 2.0 mph3.2 kmh 30.31 in1026.4 mb 0.00 in0.0 mm 0.00 in/hr0.0 mm/hr 0.00 in0.0 mm
02:30 PM 68.3°F20.2°C 47.3°F8.5°C 47% 0.5 mph SW0.8 kmh SW 5.0 mph8.0 kmh 30.31 in1026.4 mb 0.00 in0.0 mm 0.00 in/hr0.0 mm/hr 0.00 in0.0 mm
02:20 PM 67.6°F19.8°C 46.1°F7.8°C 46% 0.1 mph SW0.2 kmh SW 1.0 mph1.6 kmh 30.31 in1026.4 mb 0.00 in0.0 mm 0.00 in/hr0.0 mm/hr 0.00 in0.0 mm
02:10 PM 67.6°F19.8°C 47.2°F8.4°C 48% 2.6 mph S4.2 kmh S 4.0 mph6.4 kmh 30.31 in1026.4 mb 0.00 in0.0 mm 0.00 in/hr0.0 mm/hr 0.00 in0.0 mm
02:00 PM 66.8°F19.3°C 47.0°F8.3°C 49% 1.6 mph SSW2.6 kmh SSW 3.0 mph4.8 kmh 30.31 in1026.4 mb 0.00 in0.0 mm 0.00 in/hr0.0 mm/hr 0.00 in0.0 mm
01:50 PM 66.6°F19.2°C 46.8°F8.2°C 49% 2.0 mph WSW3.2 kmh WSW 5.0 mph8.0 kmh 30.32 in1026.8 mb 0.00 in0.0 mm 0.00 in/hr0.0 mm/hr 0.00 in0.0 mm
01:40 PM 65.8°F18.8°C 46.7°F8.2°C 50% 1.0 mph S1.6 kmh S 4.0 mph6.4 kmh 30.32 in1026.8 mb 0.00 in0.0 mm 0.00 in/hr0.0 mm/hr 0.00 in0.0 mm
01:30 PM 65.5°F18.6°C 46.4°F8.0°C 50% 3.1 mph SE5.0 kmh SE 5.0 mph8.0 kmh 30.32 in1026.8 mb 0.00 in0.0 mm 0.00 in/hr0.0 mm/hr 0.00 in0.0 mm
01:20 PM 65.2°F18.4°C 46.6°F8.1°C 51% 3.6 mph SSE5.8 kmh SSE 5.0 mph8.0 kmh 30.32 in1026.8 mb 0.00 in0.0 mm 0.00 in/hr0.0 mm/hr 0.00 in0.0 mm
01:10 PM 65.2°F18.4°C 47.1°F8.4°C 52% 3.3 mph E5.3 kmh E 6.0 mph9.7 kmh 30.32 in1026.8 mb 0.00 in0.0 mm 0.00 in/hr0.0 mm/hr 0.00 in0.0 mm
01:00 PM 64.8°F18.2°C 46.8°F8.2°C 52% 2.4 mph SSE3.9 kmh SSE 6.0 mph9.7 kmh 30.32 in1026.8 mb 0.00 in0.0 mm 0.00 in/hr0.0 mm/hr 0.00 in0.0 mm
12:50 PM 63.7°F17.6°C 46.7°F8.2°C 54% 0.2 mph SE0.3 kmh SE 1.0 mph1.6 kmh 30.33 in1027.1 mb 0.00 in0.0 mm 0.00 in/hr0.0 mm/hr 0.00 in0.0 mm
12:40 PM 63.5°F17.5°C 46.1°F7.8°C 53% 2.1 mph ESE3.4 kmh ESE 2.0 mph3.2 kmh 30.32 in1026.8 mb 0.00 in0.0 mm 0.00 in/hr0.0 mm/hr 0.00 in0.0 mm
12:30 PM 62.8°F17.1°C 46.8°F8.2°C 56% 3.1 mph N5.0 kmh N 4.0 mph6.4 kmh 30.32 in1026.8 mb 0.00 in0.0 mm 0.00 in/hr0.0 mm/hr 0.00 in0.0 mm
12:20 PM 61.8°F16.6°C 45.5°F7.5°C 55% 1.6 mph SSW2.6 kmh SSW 4.0 mph6.4 kmh 30.33 in1027.1 mb 0.00 in0.0 mm 0.00 in/hr0.0 mm/hr 0.00 in0.0 mm
12:10 PM 61.7°F16.5°C 46.3°F7.9°C 57% 2.7 mph SW4.3 kmh SW 4.0 mph6.4 kmh 30.33 in1027.1 mb 0.00 in0.0 mm 0.00 in/hr0.0 mm/hr 0.00 in0.0 mm
12:00 PM 61.1°F16.2°C 46.7°F8.2°C 59% 4.7 mph SE7.6 kmh SE 7.0 mph11.3 kmh 30.32 in1026.8 mb 0.00 in0.0 mm 0.00 in/hr0.0 mm/hr 0.00 in0.0 mm
11:50 AM 61.2°F16.2°C 46.8°F8.2°C 59% 2.9 mph SW4.7 kmh SW 5.0 mph8.0 kmh 30.32 in1026.8 mb 0.00 in0.0 mm 0.00 in/hr0.0 mm/hr 0.00 in0.0 mm
11:40 AM 60.5°F15.8°C 46.6°F8.1°C 60% 0.4 mph SW0.6 kmh SW 4.0 mph6.4 kmh 30.32 in1026.8 mb 0.00 in0.0 mm 0.00 in/hr0.0 mm/hr 0.00 in0.0 mm
11:30 AM 61.2°F16.2°C 46.3°F7.9°C 58% 2.2 mph SW3.5 kmh SW 3.0 mph4.8 kmh 30.33 in1027.1 mb 0.00 in0.0 mm 0.00 in/hr0.0 mm/hr 0.00 in0.0 mm
11:20 AM 59.9°F15.5°C 45.6°F7.6°C 59% 1.4 mph E2.3 kmh E 3.0 mph4.8 kmh 30.33 in1027.1 mb 0.00 in0.0 mm 0.00 in/hr0.0 mm/hr 0.00 in0.0 mm
11:10 AM 59.7°F15.4°C 46.6°F8.1°C 62% 1.0 mph SE1.6 kmh SE 2.0 mph3.2 kmh 30.33 in1027.1 mb 0.00 in0.0 mm 0.00 in/hr0.0 mm/hr 0.00 in0.0 mm
11:00 AM 58.0°F14.4°C 45.0°F7.2°C 62% 0.1 mph ENE0.2 kmh ENE -- 30.33 in1027.1 mb 0.00 in0.0 mm 0.00 in/hr0.0 mm/hr 0.00 in0.0 mm
10:50 AM 57.6°F14.2°C 44.2°F6.8°C 61% 1.7 mph E2.7 kmh E 4.0 mph6.4 kmh 30.33 in1027.1 mb 0.00 in0.0 mm 0.00 in/hr0.0 mm/hr 0.00 in0.0 mm
10:40 AM 57.7°F14.3°C 44.3°F6.8°C 61% 0.8 mph ESE1.3 kmh ESE 2.0 mph3.2 kmh 30.34 in1027.4 mb 0.00 in0.0 mm 0.00 in/hr0.0 mm/hr 0.00 in0.0 mm
10:30 AM 57.2°F14.0°C 44.8°F7.1°C 63% 1.9 mph NNE3.1 kmh NNE 5.0 mph8.0 kmh 30.33 in1027.1 mb 0.00 in0.0 mm 0.00 in/hr0.0 mm/hr 0.00 in0.0 mm
10:20 AM 56.6°F13.7°C 45.8°F7.7°C 67% 1.6 mph SSW2.6 kmh SSW 3.0 mph4.8 kmh 30.33 in1027.1 mb 0.00 in0.0 mm 0.00 in/hr0.0 mm/hr 0.00 in0.0 mm
10:10 AM 56.5°F13.6°C 45.6°F7.6°C 67% 1.3 mph WNW2.1 kmh WNW 3.0 mph4.8 kmh 30.33 in1027.1 mb 0.00 in0.0 mm 0.00 in/hr0.0 mm/hr 0.00 in0.0 mm
10:00 AM 56.1°F13.4°C 46.1°F7.8°C 69% 0.8 mph WNW1.3 kmh WNW 1.0 mph1.6 kmh 30.33 in1027.1 mb 0.00 in0.0 mm 0.00 in/hr0.0 mm/hr 0.00 in0.0 mm
09:50 AM 56.1°F13.4°C 45.7°F7.6°C 68% 1.0 mph NNW1.6 kmh NNW 2.0 mph3.2 kmh 30.32 in1026.8 mb 0.00 in0.0 mm 0.00 in/hr0.0 mm/hr 0.00 in0.0 mm
09:40 AM 55.8°F13.2°C 45.0°F7.2°C 67% 0.8 mph SW1.3 kmh SW 2.0 mph3.2 kmh 30.32 in1026.8 mb 0.00 in0.0 mm 0.00 in/hr0.0 mm/hr 0.00 in0.0 mm
09:30 AM 55.5°F13.1°C 45.1°F7.3°C 68% 1.2 mph NE1.9 kmh NE 3.0 mph4.8 kmh 30.31 in1026.4 mb 0.00 in0.0 mm 0.00 in/hr0.0 mm/hr 0.00 in0.0 mm
09:20 AM 54.6°F12.6°C 45.0°F7.2°C 70% 0.1 mph SE0.2 kmh SE 1.0 mph1.6 kmh 30.31 in1026.4 mb 0.00 in0.0 mm 0.00 in/hr0.0 mm/hr 0.00 in0.0 mm
09:10 AM 54.0°F12.2°C 45.5°F7.5°C 73% 0.1 mph NNE0.2 kmh NNE 3.0 mph4.8 kmh 30.31 in1026.4 mb 0.00 in0.0 mm 0.00 in/hr0.0 mm/hr 0.00 in0.0 mm
09:00 AM 53.0°F11.7°C 45.0°F7.2°C 74% 0.1 mph E0.2 kmh E 1.0 mph1.6 kmh 30.31 in1026.4 mb 0.00 in0.0 mm 0.00 in/hr0.0 mm/hr 0.00 in0.0 mm
08:50 AM 51.6°F10.9°C 45.3°F7.4°C 79% 0.1 mph SE0.2 kmh SE 1.0 mph1.6 kmh 30.31 in1026.4 mb 0.00 in0.0 mm 0.00 in/hr0.0 mm/hr 0.00 in0.0 mm
08:40 AM 50.3°F10.2°C 44.7°F7.1°C 81% Calm Calm 1.0 mph1.6 kmh 30.30 in1026.1 mb 0.00 in0.0 mm 0.00 in/hr0.0 mm/hr 0.00 in0.0 mm
08:30 AM 49.8°F9.9°C 44.8°F7.1°C 83% Calm Calm -- 30.30 in1026.1 mb 0.00 in0.0 mm 0.00 in/hr0.0 mm/hr 0.00 in0.0 mm
08:20 AM 49.1°F9.5°C 44.8°F7.1°C 85% Calm Calm -- 30.30 in1026.1 mb 0.00 in0.0 mm 0.00 in/hr0.0 mm/hr 0.00 in0.0 mm
08:10 AM 48.6°F9.2°C 44.6°F7.0°C 86% Calm Calm -- 30.29 in1025.7 mb 0.00 in0.0 mm 0.00 in/hr0.0 mm/hr 0.00 in0.0 mm
08:00 AM 47.6°F8.7°C 44.5°F6.9°C 89% Calm Calm -- 30.29 in1025.7 mb 0.00 in0.0 mm 0.00 in/hr0.0 mm/hr 0.00 in0.0 mm
07:50 AM 46.7°F8.2°C 43.6°F6.4°C 89% Calm Calm -- 30.29 in1025.7 mb 0.00 in0.0 mm 0.00 in/hr0.0 mm/hr 0.00 in0.0 mm
07:40 AM 46.5°F8.1°C 43.1°F6.2°C 88% Calm Calm -- 30.29 in1025.7 mb 0.00 in0.0 mm 0.00 in/hr0.0 mm/hr 0.00 in0.0 mm
07:30 AM 47.1°F8.4°C 43.4°F6.3°C 87% Calm Calm -- 30.29 in1025.7 mb 0.00 in0.0 mm 0.00 in/hr0.0 mm/hr 0.00 in0.0 mm
07:20 AM 47.3°F8.5°C 43.3°F6.3°C 86% Calm Calm -- 30.29 in1025.7 mb 0.00 in0.0 mm 0.00 in/hr0.0 mm/hr 0.00 in0.0 mm
07:10 AM 47.9°F8.8°C 43.3°F6.3°C 84% Calm Calm -- 30.28 in1025.4 mb 0.00 in0.0 mm 0.00 in/hr0.0 mm/hr 0.00 in0.0 mm
07:00 AM 48.3°F9.1°C 43.4°F6.3°C 83% Calm Calm 1.0 mph1.6 kmh 30.28 in1025.4 mb 0.00 in0.0 mm 0.00 in/hr0.0 mm/hr 0.00 in0.0 mm
06:50 AM 48.2°F9.0°C 43.6°F6.4°C 84% Calm Calm 1.0 mph1.6 kmh 30.27 in1025.1 mb 0.00 in0.0 mm 0.00 in/hr0.0 mm/hr 0.00 in0.0 mm
06:40 AM 48.2°F9.0°C 43.3°F6.3°C 83% Calm Calm -- 30.27 in1025.1 mb 0.00 in0.0 mm 0.00 in/hr0.0 mm/hr 0.00 in0.0 mm
06:30 AM 48.2°F9.0°C 43.3°F6.3°C 83% 0.3 mph NE0.5 kmh NE 1.0 mph1.6 kmh 30.26 in1024.7 mb 0.00 in0.0 mm 0.00 in/hr0.0 mm/hr 0.00 in0.0 mm
06:20 AM 48.2°F9.0°C 43.3°F6.3°C 83% 0.2 mph N0.3 kmh N 1.0 mph1.6 kmh 30.26 in1024.7 mb 0.00 in0.0 mm 0.00 in/hr0.0 mm/hr 0.00 in0.0 mm
06:10 AM 48.4°F9.1°C 43.2°F6.2°C 82% Calm Calm -- 30.25 in1024.4 mb 0.00 in0.0 mm 0.00 in/hr0.0 mm/hr 0.00 in0.0 mm
06:00 AM 48.6°F9.2°C 43.0°F6.1°C 81% Calm Calm 1.0 mph1.6 kmh 30.25 in1024.4 mb 0.00 in0.0 mm 0.00 in/hr0.0 mm/hr 0.00 in0.0 mm
05:50 AM 48.2°F9.0°C 42.9°F6.1°C 82% 0.1 mph ENE0.2 kmh ENE -- 30.24 in1024.0 mb 0.00 in0.0 mm 0.00 in/hr0.0 mm/hr 0.00 in0.0 mm
05:40 AM 47.8°F8.8°C 42.5°F5.8°C 82% Calm Calm -- 30.24 in1024.0 mb 0.00 in0.0 mm 0.00 in/hr0.0 mm/hr 0.00 in0.0 mm
05:30 AM 47.3°F8.5°C 42.4°F5.8°C 83% Calm Calm -- 30.23 in1023.7 mb 0.00 in0.0 mm 0.00 in/hr0.0 mm/hr 0.00 in0.0 mm
05:20 AM 47.1°F8.4°C 42.2°F5.7°C 83% Calm Calm -- 30.23 in1023.7 mb 0.00 in0.0 mm 0.00 in/hr0.0 mm/hr 0.00 in0.0 mm
05:10 AM 46.0°F7.8°C 42.1°F5.6°C 86% 0.1 mph ENE0.2 kmh ENE 1.0 mph1.6 kmh 30.23 in1023.7 mb 0.00 in0.0 mm 0.00 in/hr0.0 mm/hr 0.00 in0.0 mm
05:00 AM 45.8°F7.7°C 42.1°F5.6°C 87% Calm Calm -- 30.22 in1023.4 mb 0.00 in0.0 mm 0.00 in/hr0.0 mm/hr 0.00 in0.0 mm
04:50 AM 46.3°F7.9°C 41.7°F5.4°C 84% Calm Calm -- 30.22 in1023.4 mb 0.00 in0.0 mm 0.00 in/hr0.0 mm/hr 0.00 in0.0 mm
04:40 AM 46.8°F8.2°C 41.9°F5.5°C 83% Calm Calm -- 30.22 in1023.4 mb 0.00 in0.0 mm 0.00 in/hr0.0 mm/hr 0.00 in0.0 mm
04:30 AM 47.3°F8.5°C 41.8°F5.4°C 81% Calm Calm -- 30.22 in1023.4 mb 0.00 in0.0 mm 0.00 in/hr0.0 mm/hr 0.00 in0.0 mm
04:20 AM 48.1°F8.9°C 41.9°F5.5°C 79% Calm Calm -- 30.22 in1023.4 mb 0.00 in0.0 mm 0.00 in/hr0.0 mm/hr 0.00 in0.0 mm
04:10 AM 48.7°F9.3°C 41.8°F5.4°C 77% Calm Calm -- 30.21 in1023.0 mb 0.00 in0.0 mm 0.00 in/hr0.0 mm/hr 0.00 in0.0 mm
04:00 AM 49.1°F9.5°C 41.9°F5.5°C 76% Calm Calm -- 30.21 in1023.0 mb 0.00 in0.0 mm 0.00 in/hr0.0 mm/hr 0.00 in0.0 mm
03:50 AM 49.3°F9.6°C 41.7°F5.4°C 75% Calm Calm -- 30.20 in1022.7 mb 0.00 in0.0 mm 0.00 in/hr0.0 mm/hr 0.00 in0.0 mm
03:40 AM 49.3°F9.6°C 41.4°F5.2°C 74% Calm Calm -- 30.20 in1022.7 mb 0.00 in0.0 mm 0.00 in/hr0.0 mm/hr 0.00 in0.0 mm
03:30 AM 49.6°F9.8°C 41.7°F5.4°C 74% Calm Calm -- 30.20 in1022.7 mb 0.00 in0.0 mm 0.00 in/hr0.0 mm/hr 0.00 in0.0 mm
03:20 AM 49.7°F9.8°C 41.4°F5.2°C 73% 0.1 mph NW0.2 kmh NW 1.0 mph1.6 kmh 30.19 in1022.4 mb 0.00 in0.0 mm 0.00 in/hr0.0 mm/hr 0.00 in0.0 mm
03:10 AM 49.7°F9.8°C 41.4°F5.2°C 73% Calm Calm -- 30.20 in1022.7 mb 0.00 in0.0 mm 0.00 in/hr0.0 mm/hr 0.00 in0.0 mm
03:00 AM 49.5°F9.7°C 41.2°F5.1°C 73% Calm Calm -- 30.19 in1022.4 mb 0.00 in0.0 mm 0.00 in/hr0.0 mm/hr 0.00 in0.0 mm
02:50 AM 49.9°F9.9°C 41.2°F5.1°C 72% Calm Calm -- 30.19 in1022.4 mb 0.00 in0.0 mm 0.00 in/hr0.0 mm/hr 0.00 in0.0 mm
02:40 AM 50.2°F10.1°C 41.2°F5.1°C 71% 0.2 mph W0.3 kmh W 1.0 mph1.6 kmh 30.19 in1022.4 mb 0.00 in0.0 mm 0.00 in/hr0.0 mm/hr 0.00 in0.0 mm
02:30 AM 50.5°F10.3°C 41.1°F5.1°C 70% 0.2 mph SE0.3 kmh SE 1.0 mph1.6 kmh 30.19 in1022.4 mb 0.00 in0.0 mm 0.00 in/hr0.0 mm/hr 0.00 in0.0 mm
02:20 AM 50.8°F10.4°C 41.0°F5.0°C 69% Calm Calm -- 30.19 in1022.4 mb 0.00 in0.0 mm 0.00 in/hr0.0 mm/hr 0.00 in0.0 mm
02:10 AM 51.0°F10.6°C 41.2°F5.1°C 69% 1.0 mph S1.6 kmh S 3.0 mph4.8 kmh 30.19 in1022.4 mb 0.00 in0.0 mm 0.00 in/hr0.0 mm/hr 0.00 in0.0 mm
02:00 AM 51.1°F10.6°C 41.3°F5.2°C 69% Calm Calm -- 30.18 in1022.0 mb 0.00 in0.0 mm 0.00 in/hr0.0 mm/hr 0.00 in0.0 mm
01:50 AM 51.1°F10.6°C 41.3°F5.2°C 69% 0.3 mph E0.5 kmh E 2.0 mph3.2 kmh 30.18 in1022.0 mb 0.00 in0.0 mm 0.00 in/hr0.0 mm/hr 0.00 in0.0 mm
01:40 AM 51.2°F10.7°C 41.4°F5.2°C 69% 0.1 mph SW0.2 kmh SW 2.0 mph3.2 kmh 30.18 in1022.0 mb 0.00 in0.0 mm 0.00 in/hr0.0 mm/hr 0.00 in0.0 mm
01:30 AM 51.3°F10.7°C 41.8°F5.4°C 70% Calm Calm -- 30.18 in1022.0 mb 0.00 in0.0 mm 0.00 in/hr0.0 mm/hr 0.00 in0.0 mm
01:20 AM 51.6°F10.9°C 41.7°F5.4°C 69% Calm Calm 1.0 mph1.6 kmh 30.18 in1022.0 mb 0.00 in0.0 mm 0.00 in/hr0.0 mm/hr 0.00 in0.0 mm
01:10 AM 51.5°F10.8°C 41.3°F5.2°C 68% 0.7 mph SSE1.1 kmh SSE 3.0 mph4.8 kmh 30.18 in1022.0 mb 0.00 in0.0 mm 0.00 in/hr0.0 mm/hr 0.00 in0.0 mm
01:00 AM 51.5°F10.8°C 41.2°F5.1°C 68% 1.3 mph SSE2.1 kmh SSE 1.0 mph1.6 kmh 30.18 in1022.0 mb 0.00 in0.0 mm 0.00 in/hr0.0 mm/hr 0.00 in0.0 mm
12:50 AM 51.8°F11.0°C 41.6°F5.3°C 68% Calm Calm -- 30.18 in1022.0 mb 0.00 in0.0 mm 0.00 in/hr0.0 mm/hr 0.00 in0.0 mm
12:40 AM 52.0°F11.1°C 41.4°F5.2°C 67% Calm Calm -- 30.17 in1021.7 mb 0.00 in0.0 mm 0.00 in/hr0.0 mm/hr 0.00 in0.0 mm
12:30 AM 52.4°F11.3°C 41.8°F5.4°C 67% Calm Calm 1.0 mph1.6 kmh 30.17 in1021.7 mb 0.00 in0.0 mm 0.00 in/hr0.0 mm/hr 0.00 in0.0 mm
12:20 AM 52.6°F11.4°C 41.2°F5.1°C 65% Calm Calm -- 30.16 in1021.3 mb 0.00 in0.0 mm 0.00 in/hr0.0 mm/hr 0.00 in0.0 mm
12:10 AM 52.7°F11.5°C 41.7°F5.4°C 66% 1.5 mph NE2.4 kmh NE 4.0 mph6.4 kmh 30.16 in1021.3 mb 0.00 in0.0 mm 0.00 in/hr0.0 mm/hr 0.00 in0.0 mm
12:00 AM 53.0°F11.7°C 41.5°F5.3°C 65% 0.3 mph NE0.5 kmh NE 2.0 mph3.2 kmh 30.16 in1021.3 mb 0.00 in0.0 mm 0.00 in/hr0.0 mm/hr 0.00 in0.0 mm